ANR weather

Antwerp International Airport (Deurne)
Antwerp, Antwerp, Belgium

Public forecast

Using degrees Celsius for public forecast. Weather courtesy of forecast.io.

METAR (pilot weather report)

Retrieved 2019/03/20 12:20 UTC (35 minutes ago):

EBAW 201220Z 25007KT 200V290 9999 SCT023 13/06 Q1034 NOSIG

TAF (pilot weather forecast)

Forecast is more than 12 hours old.

Retrieved 2018/10/03 03:27 UTC (6 months ago):

TAF TAF EBAW 030220Z 0303/0315 28006KT 9999 FEW026